sensor_id;sensor_type;location;lat;lon;timestamp;temperature;humidity
54168;DHT22;40072;50.958;3.592;2022-08-01T00:02:06;19.10;99.90
54168;DHT22;40072;50.958;3.592;2022-08-01T00:04:32;19.10;99.90
54168;DHT22;40072;50.958;3.592;2022-08-01T00:06:58;19.20;99.90
54168;DHT22;40072;50.958;3.592;2022-08-01T00:09:23;19.20;99.90
54168;DHT22;40072;50.958;3.592;2022-08-01T00:11:49;19.10;99.90
54168;DHT22;40072;50.958;3.592;2022-08-01T00:14:14;19.10;99.90
54168;DHT22;40072;50.958;3.592;2022-08-01T00:16:40;19.20;99.90
54168;DHT22;40072;50.958;3.592;2022-08-01T00:19:06;19.20;99.90
54168;DHT22;40072;50.958;3.592;2022-08-01T00:21:31;19.10;99.90
54168;DHT22;40072;50.958;3.592;2022-08-01T00:23:57;19.00;99.90
54168;DHT22;40072;50.958;3.592;2022-08-01T00:26:22;19.00;99.90
54168;DHT22;40072;50.958;3.592;2022-08-01T00:28:48;19.00;99.90
54168;DHT22;40072;50.958;3.592;2022-08-01T00:31:14;19.00;99.90
54168;DHT22;40072;50.958;3.592;2022-08-01T00:33:39;19.10;99.90
54168;DHT22;40072;50.958;3.592;2022-08-01T00:36:05;19.10;99.90
54168;DHT22;40072;50.958;3.592;2022-08-01T00:38:31;19.20;99.90
54168;DHT22;40072;50.958;3.592;2022-08-01T00:40:57;19.20;99.90
54168;DHT22;40072;50.958;3.592;2022-08-01T00:43:22;19.20;99.90
54168;DHT22;40072;50.958;3.592;2022-08-01T00:45:48;19.10;99.90
54168;DHT22;40072;50.958;3.592;2022-08-01T00:48:14;19.10;99.90
54168;DHT22;40072;50.958;3.592;2022-08-01T00:50:40;19.10;99.90
54168;DHT22;40072;50.958;3.592;2022-08-01T00:53:06;19.20;99.90
54168;DHT22;40072;50.958;3.592;2022-08-01T00:55:31;19.10;99.90
54168;DHT22;40072;50.958;3.592;2022-08-01T00:57:58;19.00;99.90
54168;DHT22;40072;50.958;3.592;2022-08-01T01:00:25;19.00;99.90
54168;DHT22;40072;50.958;3.592;2022-08-01T01:02:51;19.10;99.90
54168;DHT22;40072;50.958;3.592;2022-08-01T01:05:17;19.10;99.90
54168;DHT22;40072;50.958;3.592;2022-08-01T01:08:05;19.10;99.90
54168;DHT22;40072;50.958;3.592;2022-08-01T01:10:52;19.20;99.90
54168;DHT22;40072;50.958;3.592;2022-08-01T01:16:14;19.20;99.90
54168;DHT22;40072;50.958;3.592;2022-08-01T01:18:55;19.20;99.90
54168;DHT22;40072;50.958;3.592;2022-08-01T01:26:45;19.10;99.90
54168;DHT22;40072;50.958;3.592;2022-08-01T01:29:25;19.10;99.90
54168;DHT22;40072;50.958;3.592;2022-08-01T01:31:55;19.20;99.90
54168;DHT22;40072;50.958;3.592;2022-08-01T01:34:22;19.10;99.90
54168;DHT22;40072;50.958;3.592;2022-08-01T01:36:49;19.10;99.90
54168;DHT22;40072;50.958;3.592;2022-08-01T01:39:16;19.10;99.90
54168;DHT22;40072;50.958;3.592;2022-08-01T01:41:43;19.10;99.90
54168;DHT22;40072;50.958;3.592;2022-08-01T01:44:10;19.10;99.90
54168;DHT22;40072;50.958;3.592;2022-08-01T01:46:37;19.10;99.90
54168;DHT22;40072;50.958;3.592;2022-08-01T01:49:03;19.20;99.90
54168;DHT22;40072;50.958;3.592;2022-08-01T01:51:30;19.30;99.90
54168;DHT22;40072;50.958;3.592;2022-08-01T01:53:57;19.30;99.90
54168;DHT22;40072;50.958;3.592;2022-08-01T01:56:25;19.30;99.90
54168;DHT22;40072;50.958;3.592;2022-08-01T01:58:59;19.30;99.90
54168;DHT22;40072;50.958;3.592;2022-08-01T02:01:28;19.30;99.90
54168;DHT22;40072;50.958;3.592;2022-08-01T02:03:56;19.30;99.90
54168;DHT22;40072;50.958;3.592;2022-08-01T02:06:23;19.30;99.90
54168;DHT22;40072;50.958;3.592;2022-08-01T02:08:52;19.40;99.90
54168;DHT22;40072;50.958;3.592;2022-08-01T02:11:20;19.30;99.90
54168;DHT22;40072;50.958;3.592;2022-08-01T02:13:57;19.30;99.90
54168;DHT22;40072;50.958;3.592;2022-08-01T02:16:27;19.30;99.90
54168;DHT22;40072;50.958;3.592;2022-08-01T02:18:53;19.40;99.90
54168;DHT22;40072;50.958;3.592;2022-08-01T02:24:14;19.40;99.90
54168;DHT22;40072;50.958;3.592;2022-08-01T02:26:46;19.10;99.90
54168;DHT22;40072;50.958;3.592;2022-08-01T02:29:17;19.00;99.90
54168;DHT22;40072;50.958;3.592;2022-08-01T02:31:46;18.90;99.90
54168;DHT22;40072;50.958;3.592;2022-08-01T02:34:16;18.90;99.90
54168;DHT22;40072;50.958;3.592;2022-08-01T02:36:44;18.90;99.90
54168;DHT22;40072;50.958;3.592;2022-08-01T02:39:13;18.90;99.90
54168;DHT22;40072;50.958;3.592;2022-08-01T02:41:47;18.90;99.90
54168;DHT22;40072;50.958;3.592;2022-08-01T02:44:38;18.80;99.90
54168;DHT22;40072;50.958;3.592;2022-08-01T02:47:03;18.70;99.90
54168;DHT22;40072;50.958;3.592;2022-08-01T02:49:33;18.70;99.90
54168;DHT22;40072;50.958;3.592;2022-08-01T02:52:07;18.80;99.90
54168;DHT22;40072;50.958;3.592;2022-08-01T02:54:34;18.90;99.90
54168;DHT22;40072;50.958;3.592;2022-08-01T02:57:00;18.90;99.90
54168;DHT22;40072;50.958;3.592;2022-08-01T02:59:29;19.10;99.90
54168;DHT22;40072;50.958;3.592;2022-08-01T03:01:59;19.00;99.90
54168;DHT22;40072;50.958;3.592;2022-08-01T03:04:26;19.00;99.90
54168;DHT22;40072;50.958;3.592;2022-08-01T03:06:56;19.10;99.90
54168;DHT22;40072;50.958;3.592;2022-08-01T03:09:26;19.20;99.90
54168;DHT22;40072;50.958;3.592;2022-08-01T03:11:52;19.20;99.90
54168;DHT22;40072;50.958;3.592;2022-08-01T03:14:20;19.30;99.90
54168;DHT22;40072;50.958;3.592;2022-08-01T03:16:49;19.30;99.90
54168;DHT22;40072;50.958;3.592;2022-08-01T03:19:15;19.30;99.90
54168;DHT22;40072;50.958;3.592;2022-08-01T03:21:44;19.30;99.90
54168;DHT22;40072;50.958;3.592;2022-08-01T03:24:10;19.30;99.90
54168;DHT22;40072;50.958;3.592;2022-08-01T03:26:38;19.30;99.90
54168;DHT22;40072;50.958;3.592;2022-08-01T03:29:17;19.30;99.90
54168;DHT22;40072;50.958;3.592;2022-08-01T03:31:46;19.30;99.90
54168;DHT22;40072;50.958;3.592;2022-08-01T03:34:13;19.40;99.90
54168;DHT22;40072;50.958;3.592;2022-08-01T03:36:47;19.50;99.90
54168;DHT22;40072;50.958;3.592;2022-08-01T03:39:14;19.60;99.90
54168;DHT22;40072;50.958;3.592;2022-08-01T03:41:45;19.50;99.90
54168;DHT22;40072;50.958;3.592;2022-08-01T03:44:18;19.60;99.90
54168;DHT22;40072;50.958;3.592;2022-08-01T03:46:48;19.60;99.90
54168;DHT22;40072;50.958;3.592;2022-08-01T03:49:21;19.70;99.90
54168;DHT22;40072;50.958;3.592;2022-08-01T03:51:49;19.60;99.90
54168;DHT22;40072;50.958;3.592;2022-08-01T03:54:20;19.40;99.90
54168;DHT22;40072;50.958;3.592;2022-08-01T03:56:48;19.40;99.90
54168;DHT22;40072;50.958;3.592;2022-08-01T03:59:16;19.40;99.90
54168;DHT22;40072;50.958;3.592;2022-08-01T04:01:44;19.30;99.90
54168;DHT22;40072;50.958;3.592;2022-08-01T04:04:10;19.40;99.90
54168;DHT22;40072;50.958;3.592;2022-08-01T04:06:40;19.40;99.90
54168;DHT22;40072;50.958;3.592;2022-08-01T04:09:09;19.40;99.90
54168;DHT22;40072;50.958;3.592;2022-08-01T04:11:35;19.40;99.90
54168;DHT22;40072;50.958;3.592;2022-08-01T04:14:01;19.40;99.90
54168;DHT22;40072;50.958;3.592;2022-08-01T04:16:27;19.40;99.90
54168;DHT22;40072;50.958;3.592;2022-08-01T04:18:52;19.40;99.90
54168;DHT22;40072;50.958;3.592;2022-08-01T04:21:22;19.50;99.90
54168;DHT22;40072;50.958;3.592;2022-08-01T04:23:49;19.40;99.90
54168;DHT22;40072;50.958;3.592;2022-08-01T04:26:17;19.50;99.90
54168;DHT22;40072;50.958;3.592;2022-08-01T04:28:44;19.60;99.90
54168;DHT22;40072;50.958;3.592;2022-08-01T04:31:12;19.60;99.90
54168;DHT22;40072;50.958;3.592;2022-08-01T04:33:46;19.70;99.90
54168;DHT22;40072;50.958;3.592;2022-08-01T04:36:14;19.70;99.90
54168;DHT22;40072;50.958;3.592;2022-08-01T04:38:42;19.60;99.90
54168;DHT22;40072;50.958;3.592;2022-08-01T04:41:10;19.60;99.90
54168;DHT22;40072;50.958;3.592;2022-08-01T04:43:37;19.60;99.90
54168;DHT22;40072;50.958;3.592;2022-08-01T04:46:04;19.50;99.90
54168;DHT22;40072;50.958;3.592;2022-08-01T04:48:32;19.40;99.90
54168;DHT22;40072;50.958;3.592;2022-08-01T04:51:00;19.40;99.90
54168;DHT22;40072;50.958;3.592;2022-08-01T04:53:26;19.40;99.90
54168;DHT22;40072;50.958;3.592;2022-08-01T04:55:52;19.50;99.90
54168;DHT22;40072;50.958;3.592;2022-08-01T04:58:18;19.50;99.90
54168;DHT22;40072;50.958;3.592;2022-08-01T05:00:43;19.50;99.90
54168;DHT22;40072;50.958;3.592;2022-08-01T05:03:09;19.60;99.90
54168;DHT22;40072;50.958;3.592;2022-08-01T05:05:35;19.70;99.90
54168;DHT22;40072;50.958;3.592;2022-08-01T05:08:01;19.70;99.90
54168;DHT22;40072;50.958;3.592;2022-08-01T05:10:27;19.80;99.90
54168;DHT22;40072;50.958;3.592;2022-08-01T05:12:53;19.90;99.90
54168;DHT22;40072;50.958;3.592;2022-08-01T05:15:19;19.90;99.90
54168;DHT22;40072;50.958;3.592;2022-08-01T05:17:44;20.00;99.90
54168;DHT22;40072;50.958;3.592;2022-08-01T05:20:11;20.20;99.90
54168;DHT22;40072;50.958;3.592;2022-08-01T05:22:37;20.30;99.90
54168;DHT22;40072;50.958;3.592;2022-08-01T05:25:03;20.30;99.90
54168;DHT22;40072;50.958;3.592;2022-08-01T05:27:30;20.20;99.90
54168;DHT22;40072;50.958;3.592;2022-08-01T05:29:56;20.20;99.90
54168;DHT22;40072;50.958;3.592;2022-08-01T05:32:22;20.10;99.90
54168;DHT22;40072;50.958;3.592;2022-08-01T05:34:48;20.10;99.90
54168;DHT22;40072;50.958;3.592;2022-08-01T05:37:14;20.10;99.90
54168;DHT22;40072;50.958;3.592;2022-08-01T05:39:39;20.00;99.90
54168;DHT22;40072;50.958;3.592;2022-08-01T05:42:05;20.10;99.90
54168;DHT22;40072;50.958;3.592;2022-08-01T05:44:31;20.20;99.90
54168;DHT22;40072;50.958;3.592;2022-08-01T05:46:57;20.20;99.90
54168;DHT22;40072;50.958;3.592;2022-08-01T05:49:22;20.40;99.90
54168;DHT22;40072;50.958;3.592;2022-08-01T05:51:48;20.50;99.90
54168;DHT22;40072;50.958;3.592;2022-08-01T05:54:14;20.70;99.90
54168;DHT22;40072;50.958;3.592;2022-08-01T05:56:40;20.80;99.90
54168;DHT22;40072;50.958;3.592;2022-08-01T05:59:06;21.00;99.90
54168;DHT22;40072;50.958;3.592;2022-08-01T06:01:31;21.00;99.90
54168;DHT22;40072;50.958;3.592;2022-08-01T06:03:57;21.10;99.90
54168;DHT22;40072;50.958;3.592;2022-08-01T06:06:23;21.20;99.90
54168;DHT22;40072;50.958;3.592;2022-08-01T06:08:48;21.00;99.90
54168;DHT22;40072;50.958;3.592;2022-08-01T06:11:14;21.20;99.90
54168;DHT22;40072;50.958;3.592;2022-08-01T06:13:40;21.40;99.90
54168;DHT22;40072;50.958;3.592;2022-08-01T06:16:05;21.30;99.90
54168;DHT22;40072;50.958;3.592;2022-08-01T06:18:31;21.10;99.90
54168;DHT22;40072;50.958;3.592;2022-08-01T06:20:57;21.20;99.90
54168;DHT22;40072;50.958;3.592;2022-08-01T06:23:22;21.20;99.90
54168;DHT22;40072;50.958;3.592;2022-08-01T06:25:51;21.30;99.90
54168;DHT22;40072;50.958;3.592;2022-08-01T06:28:17;21.30;99.90
54168;DHT22;40072;50.958;3.592;2022-08-01T06:30:43;21.20;99.90
54168;DHT22;40072;50.958;3.592;2022-08-01T06:33:09;21.30;99.90
54168;DHT22;40072;50.958;3.592;2022-08-01T06:35:34;21.10;99.90
54168;DHT22;40072;50.958;3.592;2022-08-01T06:38:00;21.20;99.90
54168;DHT22;40072;50.958;3.592;2022-08-01T06:40:26;21.20;99.90
54168;DHT22;40072;50.958;3.592;2022-08-01T06:42:52;21.20;99.90
54168;DHT22;40072;50.958;3.592;2022-08-01T06:45:18;21.20;99.90
54168;DHT22;40072;50.958;3.592;2022-08-01T06:47:44;21.30;99.90
54168;DHT22;40072;50.958;3.592;2022-08-01T06:50:10;21.20;99.90
54168;DHT22;40072;50.958;3.592;2022-08-01T06:52:36;21.00;99.90
54168;DHT22;40072;50.958;3.592;2022-08-01T06:55:03;21.00;99.90
54168;DHT22;40072;50.958;3.592;2022-08-01T06:57:29;21.00;99.90
54168;DHT22;40072;50.958;3.592;2022-08-01T06:59:55;21.10;99.90
54168;DHT22;40072;50.958;3.592;2022-08-01T07:02:22;21.20;99.90
54168;DHT22;40072;50.958;3.592;2022-08-01T07:04:47;21.40;99.90
54168;DHT22;40072;50.958;3.592;2022-08-01T07:07:13;21.50;99.90
54168;DHT22;40072;50.958;3.592;2022-08-01T07:09:38;21.60;99.90
54168;DHT22;40072;50.958;3.592;2022-08-01T07:12:07;21.70;99.90
54168;DHT22;40072;50.958;3.592;2022-08-01T07:14:32;22.10;99.90
54168;DHT22;40072;50.958;3.592;2022-08-01T07:16:58;22.10;99.90
54168;DHT22;40072;50.958;3.592;2022-08-01T07:19:24;22.30;99.90
54168;DHT22;40072;50.958;3.592;2022-08-01T07:21:49;22.70;99.90
54168;DHT22;40072;50.958;3.592;2022-08-01T07:24:15;22.70;99.90
54168;DHT22;40072;50.958;3.592;2022-08-01T07:26:42;22.40;99.90
54168;DHT22;40072;50.958;3.592;2022-08-01T07:29:09;21.90;99.90
54168;DHT22;40072;50.958;3.592;2022-08-01T07:31:35;21.70;99.90
54168;DHT22;40072;50.958;3.592;2022-08-01T07:34:00;21.20;99.90
54168;DHT22;40072;50.958;3.592;2022-08-01T07:36:26;21.70;99.90
54168;DHT22;40072;50.958;3.592;2022-08-01T07:38:52;22.00;99.90
54168;DHT22;40072;50.958;3.592;2022-08-01T07:41:17;22.10;99.90
54168;DHT22;40072;50.958;3.592;2022-08-01T07:43:43;22.00;99.90
54168;DHT22;40072;50.958;3.592;2022-08-01T07:46:09;21.90;99.90
54168;DHT22;40072;50.958;3.592;2022-08-01T07:48:35;22.30;99.90
54168;DHT22;40072;50.958;3.592;2022-08-01T07:51:00;22.00;99.90
54168;DHT22;40072;50.958;3.592;2022-08-01T07:53:26;22.20;99.90
54168;DHT22;40072;50.958;3.592;2022-08-01T07:55:52;22.40;99.90
54168;DHT22;40072;50.958;3.592;2022-08-01T07:58:18;22.70;99.90
54168;DHT22;40072;50.958;3.592;2022-08-01T08:00:43;23.00;99.90
54168;DHT22;40072;50.958;3.592;2022-08-01T08:03:09;23.20;99.90
54168;DHT22;40072;50.958;3.592;2022-08-01T08:05:35;23.10;99.90
54168;DHT22;40072;50.958;3.592;2022-08-01T08:08:04;22.80;99.90
54168;DHT22;40072;50.958;3.592;2022-08-01T08:10:30;22.20;99.90
54168;DHT22;40072;50.958;3.592;2022-08-01T08:12:55;22.40;99.90
54168;DHT22;40072;50.958;3.592;2022-08-01T08:15:21;22.40;99.90
54168;DHT22;40072;50.958;3.592;2022-08-01T08:17:47;22.50;99.90
54168;DHT22;40072;50.958;3.592;2022-08-01T08:20:12;22.60;99.90
54168;DHT22;40072;50.958;3.592;2022-08-01T08:22:38;22.60;99.90
54168;DHT22;40072;50.958;3.592;2022-08-01T08:25:05;22.80;99.90
54168;DHT22;40072;50.958;3.592;2022-08-01T08:27:31;22.80;99.90
54168;DHT22;40072;50.958;3.592;2022-08-01T08:29:56;22.70;99.90
54168;DHT22;40072;50.958;3.592;2022-08-01T08:32:22;22.80;99.90
54168;DHT22;40072;50.958;3.592;2022-08-01T08:34:48;22.70;99.90
54168;DHT22;40072;50.958;3.592;2022-08-01T08:37:13;22.50;99.90
54168;DHT22;40072;50.958;3.592;2022-08-01T08:39:39;22.50;99.90
54168;DHT22;40072;50.958;3.592;2022-08-01T08:42:09;22.50;99.90
54168;DHT22;40072;50.958;3.592;2022-08-01T08:44:35;22.60;99.90
54168;DHT22;40072;50.958;3.592;2022-08-01T08:47:02;22.80;99.90
54168;DHT22;40072;50.958;3.592;2022-08-01T08:49:31;22.60;99.90
54168;DHT22;40072;50.958;3.592;2022-08-01T08:51:59;23.00;99.90
54168;DHT22;40072;50.958;3.592;2022-08-01T08:54:25;23.10;99.90
54168;DHT22;40072;50.958;3.592;2022-08-01T08:56:53;23.10;99.90
54168;DHT22;40072;50.958;3.592;2022-08-01T08:59:19;23.00;99.90
54168;DHT22;40072;50.958;3.592;2022-08-01T09:01:47;23.10;99.90
54168;DHT22;40072;50.958;3.592;2022-08-01T09:04:13;22.90;99.90
54168;DHT22;40072;50.958;3.592;2022-08-01T09:06:39;22.80;99.90
54168;DHT22;40072;50.958;3.592;2022-08-01T09:09:06;22.50;99.90
54168;DHT22;40072;50.958;3.592;2022-08-01T09:11:32;22.40;99.90
54168;DHT22;40072;50.958;3.592;2022-08-01T09:14:14;22.70;99.90
54168;DHT22;40072;50.958;3.592;2022-08-01T09:16:47;23.20;99.90
54168;DHT22;40072;50.958;3.592;2022-08-01T09:19:24;23.50;99.90
54168;DHT22;40072;50.958;3.592;2022-08-01T09:22:01;24.40;99.90
54168;DHT22;40072;50.958;3.592;2022-08-01T09:24:30;25.40;99.90
54168;DHT22;40072;50.958;3.592;2022-08-01T09:26:56;24.60;98.50
54168;DHT22;40072;50.958;3.592;2022-08-01T09:29:25;23.90;99.90
54168;DHT22;40072;50.958;3.592;2022-08-01T09:31:51;24.00;99.90
54168;DHT22;40072;50.958;3.592;2022-08-01T09:34:25;24.60;99.90
54168;DHT22;40072;50.958;3.592;2022-08-01T09:36:52;25.40;98.90
54168;DHT22;40072;50.958;3.592;2022-08-01T09:39:34;25.70;98.20
54168;DHT22;40072;50.958;3.592;2022-08-01T09:42:21;26.20;97.20
54168;DHT22;40072;50.958;3.592;2022-08-01T09:44:48;26.80;96.90
54168;DHT22;40072;50.958;3.592;2022-08-01T09:47:14;26.70;96.30
54168;DHT22;40072;50.958;3.592;2022-08-01T09:49:42;26.80;95.20
54168;DHT22;40072;50.958;3.592;2022-08-01T09:52:18;26.70;96.00
54168;DHT22;40072;50.958;3.592;2022-08-01T09:54:54;26.80;95.20
54168;DHT22;40072;50.958;3.592;2022-08-01T09:57:21;26.60;95.40
54168;DHT22;40072;50.958;3.592;2022-08-01T09:59:52;26.00;96.80
54168;DHT22;40072;50.958;3.592;2022-08-01T10:02:35;26.50;96.80
54168;DHT22;40072;50.958;3.592;2022-08-01T10:05:04;27.20;95.60
54168;DHT22;40072;50.958;3.592;2022-08-01T10:07:30;27.20;95.20
54168;DHT22;40072;50.958;3.592;2022-08-01T10:09:55;26.90;94.00
54168;DHT22;40072;50.958;3.592;2022-08-01T10:12:33;25.80;96.40
54168;DHT22;40072;50.958;3.592;2022-08-01T10:14:59;26.50;96.10
54168;DHT22;40072;50.958;3.592;2022-08-01T10:17:25;27.30;95.00
54168;DHT22;40072;50.958;3.592;2022-08-01T10:19:51;27.90;93.70
54168;DHT22;40072;50.958;3.592;2022-08-01T10:22:23;28.50;93.80
54168;DHT22;40072;50.958;3.592;2022-08-01T10:24:55;29.20;92.30
54168;DHT22;40072;50.958;3.592;2022-08-01T10:27:21;28.50;91.90
54168;DHT22;40072;50.958;3.592;2022-08-01T10:29:59;27.40;92.90
54168;DHT22;40072;50.958;3.592;2022-08-01T10:32:29;26.80;93.30
54168;DHT22;40072;50.958;3.592;2022-08-01T10:34:56;26.30;94.30
54168;DHT22;40072;50.958;3.592;2022-08-01T10:37:22;26.40;93.20
54168;DHT22;40072;50.958;3.592;2022-08-01T10:39:51;26.40;94.00
54168;DHT22;40072;50.958;3.592;2022-08-01T10:42:17;26.20;94.00
54168;DHT22;40072;50.958;3.592;2022-08-01T10:44:43;25.60;94.80
54168;DHT22;40072;50.958;3.592;2022-08-01T10:47:18;26.00;95.20
54168;DHT22;40072;50.958;3.592;2022-08-01T10:50:02;27.30;94.30
54168;DHT22;40072;50.958;3.592;2022-08-01T10:52:29;28.40;92.20
54168;DHT22;40072;50.958;3.592;2022-08-01T10:55:22;28.30;91.50
54168;DHT22;40072;50.958;3.592;2022-08-01T10:57:48;27.70;92.10
54168;DHT22;40072;50.958;3.592;2022-08-01T11:00:18;27.70;91.40
54168;DHT22;40072;50.958;3.592;2022-08-01T11:03:00;28.40;92.00
54168;DHT22;40072;50.958;3.592;2022-08-01T11:05:28;29.20;91.10
54168;DHT22;40072;50.958;3.592;2022-08-01T11:07:55;28.40;89.70
54168;DHT22;40072;50.958;3.592;2022-08-01T11:13:01;26.20;93.00
54168;DHT22;40072;50.958;3.592;2022-08-01T11:15:29;26.20;93.60
54168;DHT22;40072;50.958;3.592;2022-08-01T11:17:55;27.50;92.60
54168;DHT22;40072;50.958;3.592;2022-08-01T11:20:34;29.30;90.70
54168;DHT22;40072;50.958;3.592;2022-08-01T11:25:28;30.40;87.00
54168;DHT22;40072;50.958;3.592;2022-08-01T11:30:44;29.90;85.40
54168;DHT22;40072;50.958;3.592;2022-08-01T11:33:11;31.30;85.20
54168;DHT22;40072;50.958;3.592;2022-08-01T11:35:38;34.40;79.90
54168;DHT22;40072;50.958;3.592;2022-08-01T11:38:27;34.60;77.60
54168;DHT22;40072;50.958;3.592;2022-08-01T11:46:57;29.40;83.70
54168;DHT22;40072;50.958;3.592;2022-08-01T11:54:37;32.60;74.60
54168;DHT22;40072;50.958;3.592;2022-08-01T11:57:06;32.10;76.70
54168;DHT22;40072;50.958;3.592;2022-08-01T12:02:22;34.80;73.20
54168;DHT22;40072;50.958;3.592;2022-08-01T12:05:00;34.20;72.00
54168;DHT22;40072;50.958;3.592;2022-08-01T12:07:28;33.20;72.90
54168;DHT22;40072;50.958;3.592;2022-08-01T12:12:24;30.80;77.50
54168;DHT22;40072;50.958;3.592;2022-08-01T12:14:55;32.40;76.60
54168;DHT22;40072;50.958;3.592;2022-08-01T12:17:28;32.90;74.30
54168;DHT22;40072;50.958;3.592;2022-08-01T12:19:54;31.70;75.20
54168;DHT22;40072;50.958;3.592;2022-08-01T12:22:22;29.90;76.80
54168;DHT22;40072;50.958;3.592;2022-08-01T12:24:48;28.80;81.00
54168;DHT22;40072;50.958;3.592;2022-08-01T12:27:25;28.70;80.80
54168;DHT22;40072;50.958;3.592;2022-08-01T12:29:51;29.30;80.70
54168;DHT22;40072;50.958;3.592;2022-08-01T12:32:42;30.00;79.60
54168;DHT22;40072;50.958;3.592;2022-08-01T12:35:10;32.50;76.30
54168;DHT22;40072;50.958;3.592;2022-08-01T12:37:47;31.80;71.80
54168;DHT22;40072;50.958;3.592;2022-08-01T12:40:19;30.10;75.20
54168;DHT22;40072;50.958;3.592;2022-08-01T12:42:49;30.30;75.10
54168;DHT22;40072;50.958;3.592;2022-08-01T12:45:18;30.90;75.10
54168;DHT22;40072;50.958;3.592;2022-08-01T12:47:44;30.70;75.80
54168;DHT22;40072;50.958;3.592;2022-08-01T12:50:17;30.60;75.90
54168;DHT22;40072;50.958;3.592;2022-08-01T12:52:44;31.20;74.20
54168;DHT22;40072;50.958;3.592;2022-08-01T12:55:21;31.30;73.80
54168;DHT22;40072;50.958;3.592;2022-08-01T12:57:48;30.10;75.80
54168;DHT22;40072;50.958;3.592;2022-08-01T13:00:25;29.90;76.30
54168;DHT22;40072;50.958;3.592;2022-08-01T13:03:11;29.10;77.10
54168;DHT22;40072;50.958;3.592;2022-08-01T13:08:10;30.20;76.70
54168;DHT22;40072;50.958;3.592;2022-08-01T13:10:36;32.80;72.20
54168;DHT22;40072;50.958;3.592;2022-08-01T13:13:02;33.20;70.20
54168;DHT22;40072;50.958;3.592;2022-08-01T13:15:30;34.00;69.30
54168;DHT22;40072;50.958;3.592;2022-08-01T13:17:58;34.40;69.10
54168;DHT22;40072;50.958;3.592;2022-08-01T13:20:30;36.10;66.00
54168;DHT22;40072;50.958;3.592;2022-08-01T13:23:11;37.20;65.20
54168;DHT22;40072;50.958;3.592;2022-08-01T13:25:47;37.00;63.70
54168;DHT22;40072;50.958;3.592;2022-08-01T13:28:18;35.30;65.60
54168;DHT22;40072;50.958;3.592;2022-08-01T13:30:55;33.10;68.90
54168;DHT22;40072;50.958;3.592;2022-08-01T13:33:23;32.50;70.00
54168;DHT22;40072;50.958;3.592;2022-08-01T13:35:53;31.60;70.40
54168;DHT22;40072;50.958;3.592;2022-08-01T13:38:19;29.30;74.70
54168;DHT22;40072;50.958;3.592;2022-08-01T13:40:45;29.60;74.90
54168;DHT22;40072;50.958;3.592;2022-08-01T13:43:11;30.00;74.80
54168;DHT22;40072;50.958;3.592;2022-08-01T13:45:37;29.10;75.30
54168;DHT22;40072;50.958;3.592;2022-08-01T13:48:04;29.60;75.90
54168;DHT22;40072;50.958;3.592;2022-08-01T13:50:30;29.40;76.10
54168;DHT22;40072;50.958;3.592;2022-08-01T13:52:55;29.80;75.00
54168;DHT22;40072;50.958;3.592;2022-08-01T13:55:21;29.80;73.60
54168;DHT22;40072;50.958;3.592;2022-08-01T13:57:47;28.40;74.20
54168;DHT22;40072;50.958;3.592;2022-08-01T14:00:13;28.00;77.80
54168;DHT22;40072;50.958;3.592;2022-08-01T14:02:39;28.50;77.60
54168;DHT22;40072;50.958;3.592;2022-08-01T14:05:05;29.50;76.80
54168;DHT22;40072;50.958;3.592;2022-08-01T14:07:30;31.20;75.90
54168;DHT22;40072;50.958;3.592;2022-08-01T14:09:56;32.70;71.50
54168;DHT22;40072;50.958;3.592;2022-08-01T14:12:22;34.30;68.80
54168;DHT22;40072;50.958;3.592;2022-08-01T14:14:48;33.90;67.90
54168;DHT22;40072;50.958;3.592;2022-08-01T14:17:13;34.50;68.40
54168;DHT22;40072;50.958;3.592;2022-08-01T14:19:39;33.50;65.80
54168;DHT22;40072;50.958;3.592;2022-08-01T14:22:04;30.80;70.50
54168;DHT22;40072;50.958;3.592;2022-08-01T14:24:30;29.60;72.30
54168;DHT22;40072;50.958;3.592;2022-08-01T14:26:56;29.60;72.00
54168;DHT22;40072;50.958;3.592;2022-08-01T14:29:21;29.80;72.90
54168;DHT22;40072;50.958;3.592;2022-08-01T14:31:47;30.10;73.30
54168;DHT22;40072;50.958;3.592;2022-08-01T14:34:13;31.10;72.10
54168;DHT22;40072;50.958;3.592;2022-08-01T14:36:38;31.80;69.50
54168;DHT22;40072;50.958;3.592;2022-08-01T14:39:04;31.40;69.50
54168;DHT22;40072;50.958;3.592;2022-08-01T14:41:30;30.30;72.00
54168;DHT22;40072;50.958;3.592;2022-08-01T14:43:56;30.50;72.00
54168;DHT22;40072;50.958;3.592;2022-08-01T14:46:21;31.40;72.40
54168;DHT22;40072;50.958;3.592;2022-08-01T14:48:47;31.70;70.60
54168;DHT22;40072;50.958;3.592;2022-08-01T14:51:13;32.20;70.90
54168;DHT22;40072;50.958;3.592;2022-08-01T14:53:38;31.70;70.60
54168;DHT22;40072;50.958;3.592;2022-08-01T14:56:05;31.50;70.80
54168;DHT22;40072;50.958;3.592;2022-08-01T14:58:31;31.60;69.30
54168;DHT22;40072;50.958;3.592;2022-08-01T15:00:57;32.20;68.50
54168;DHT22;40072;50.958;3.592;2022-08-01T15:03:22;32.90;68.90
54168;DHT22;40072;50.958;3.592;2022-08-01T15:05:48;32.70;67.60
54168;DHT22;40072;50.958;3.592;2022-08-01T15:08:14;31.40;70.00
54168;DHT22;40072;50.958;3.592;2022-08-01T15:10:39;30.20;70.40
54168;DHT22;40072;50.958;3.592;2022-08-01T15:13:05;29.80;72.80
54168;DHT22;40072;50.958;3.592;2022-08-01T15:15:31;29.90;71.70
54168;DHT22;40072;50.958;3.592;2022-08-01T15:17:57;29.40;73.00
54168;DHT22;40072;50.958;3.592;2022-08-01T15:20:23;30.30;72.50
54168;DHT22;40072;50.958;3.592;2022-08-01T15:22:48;30.60;69.90
54168;DHT22;40072;50.958;3.592;2022-08-01T15:25:14;29.90;71.10
54168;DHT22;40072;50.958;3.592;2022-08-01T15:27:40;28.70;72.20
54168;DHT22;40072;50.958;3.592;2022-08-01T15:30:06;28.40;73.70
54168;DHT22;40072;50.958;3.592;2022-08-01T15:32:33;28.20;74.50
54168;DHT22;40072;50.958;3.592;2022-08-01T15:34:58;28.30;74.70
54168;DHT22;40072;50.958;3.592;2022-08-01T15:37:25;28.70;73.70
54168;DHT22;40072;50.958;3.592;2022-08-01T15:39:51;28.50;73.10
54168;DHT22;40072;50.958;3.592;2022-08-01T15:42:17;28.60;73.00
54168;DHT22;40072;50.958;3.592;2022-08-01T15:44:43;28.30;74.00
54168;DHT22;40072;50.958;3.592;2022-08-01T15:47:09;29.40;72.80
54168;DHT22;40072;50.958;3.592;2022-08-01T15:49:36;29.40;72.50
54168;DHT22;40072;50.958;3.592;2022-08-01T15:52:08;28.10;73.20
54168;DHT22;40072;50.958;3.592;2022-08-01T15:54:34;28.00;74.40
54168;DHT22;40072;50.958;3.592;2022-08-01T15:57:00;28.70;73.50
54168;DHT22;40072;50.958;3.592;2022-08-01T15:59:26;28.30;72.50
54168;DHT22;40072;50.958;3.592;2022-08-01T16:01:52;28.50;75.60
54168;DHT22;40072;50.958;3.592;2022-08-01T16:04:18;28.10;73.40
54168;DHT22;40072;50.958;3.592;2022-08-01T16:06:46;28.00;75.80
54168;DHT22;40072;50.958;3.592;2022-08-01T16:09:11;27.50;74.60
54168;DHT22;40072;50.958;3.592;2022-08-01T16:11:37;27.10;75.80
54168;DHT22;40072;50.958;3.592;2022-08-01T16:14:03;27.10;76.00